createdAt,value
2017-11-17T00:08:59.000Z,24.2
2017-11-17T00:18:59.000Z,24.21
2017-11-17T00:29:00.000Z,24.17
2017-11-17T00:39:00.000Z,24.15
2017-11-17T00:49:00.000Z,24.11
2017-11-17T00:59:00.000Z,24.03
2017-11-17T01:09:00.000Z,24.04
2017-11-17T01:19:00.000Z,24.01
2017-11-17T01:29:00.000Z,23.95
2017-11-17T01:39:00.000Z,23.93
2017-11-17T01:49:00.000Z,23.88
2017-11-17T01:59:00.000Z,23.85
2017-11-17T02:09:00.000Z,23.81
2017-11-17T02:19:00.000Z,23.79
2017-11-17T02:29:00.000Z,23.73
2017-11-17T02:39:00.000Z,23.71
2017-11-17T02:49:00.000Z,23.67
2017-11-17T02:59:00.000Z,23.64
2017-11-17T03:09:00.000Z,23.62
2017-11-17T03:19:00.000Z,23.58
2017-11-17T03:29:00.000Z,23.53
2017-11-17T03:39:00.000Z,23.49
2017-11-17T03:49:00.000Z,23.46
2017-11-17T03:59:00.000Z,23.43
2017-11-17T04:09:00.000Z,23.39
2017-11-17T04:19:00.000Z,23.34
2017-11-17T04:29:00.000Z,23.24
2017-11-17T04:39:00.000Z,23.21
2017-11-17T04:49:00.000Z,23.15
2017-11-17T04:59:00.000Z,23.17
2017-11-17T05:09:00.000Z,23.18
2017-11-17T05:19:00.000Z,23.22
2017-11-17T05:29:00.000Z,23.24
2017-11-17T05:39:00.000Z,23.22
2017-11-17T05:49:01.000Z,23.23
2017-11-17T05:59:00.000Z,23.18
2017-11-17T06:09:00.000Z,23.25
2017-11-17T06:19:00.000Z,23.22
2017-11-17T06:29:00.000Z,23.23
2017-11-17T06:39:00.000Z,23.28
2017-11-17T06:49:00.000Z,23.24
2017-11-17T06:59:00.000Z,23.27
2017-11-17T07:09:00.000Z,23.32
2017-11-17T07:19:00.000Z,23.31
2017-11-17T07:29:00.000Z,23.29
2017-11-17T07:39:00.000Z,23.36
2017-11-17T07:49:00.000Z,23.37
2017-11-17T07:59:00.000Z,23.16
2017-11-17T08:09:00.000Z,23.28
2017-11-17T08:19:01.000Z,23.29
2017-11-17T08:29:00.000Z,23.42
2017-11-17T08:39:01.000Z,23.58
2017-11-17T08:49:01.000Z,23.69
2017-11-17T08:59:01.000Z,23.88
2017-11-17T09:09:01.000Z,24.02
2017-11-17T09:19:01.000Z,24.29
2017-11-17T09:29:01.000Z,24.55
2017-11-17T09:39:01.000Z,24.8
2017-11-17T09:49:01.000Z,25.02
2017-11-17T09:59:01.000Z,25.27
2017-11-17T10:09:01.000Z,25.63
2017-11-17T10:19:01.000Z,25.85
2017-11-17T10:29:01.000Z,26.02
2017-11-17T10:39:01.000Z,26.11
2017-11-17T10:49:01.000Z,25.98
2017-11-17T10:59:01.000Z,25.87
2017-11-17T11:09:01.000Z,25.73
2017-11-17T11:19:01.000Z,25.6
2017-11-17T11:29:01.000Z,25.59
2017-11-17T11:39:01.000Z,25.55
2017-11-17T11:49:01.000Z,25.55
2017-11-17T11:59:01.000Z,25.5
2017-11-17T12:09:01.000Z,25.49
2017-11-17T12:19:01.000Z,25.47
2017-11-17T12:29:01.000Z,25.53
2017-11-17T12:39:01.000Z,25.45
2017-11-17T12:49:01.000Z,25.46
2017-11-17T12:59:01.000Z,25.43
2017-11-17T13:09:01.000Z,25.4
2017-11-17T13:19:01.000Z,25.33
2017-11-17T13:29:01.000Z,25.46
2017-11-17T13:39:02.000Z,25.4
2017-11-17T13:49:01.000Z,25.43
2017-11-17T13:59:01.000Z,24.55
2017-11-17T14:09:01.000Z,25.18
2017-11-17T14:19:01.000Z,25.14
2017-11-17T14:29:01.000Z,25.13
2017-11-17T14:39:01.000Z,25.15
2017-11-17T14:49:01.000Z,25.07
2017-11-17T14:59:01.000Z,25.1
2017-11-17T15:09:01.000Z,25.01
2017-11-17T15:19:01.000Z,25.12
2017-11-17T15:29:01.000Z,25.09
2017-11-17T15:39:01.000Z,25.16
2017-11-17T15:49:01.000Z,25.19
2017-11-17T15:59:01.000Z,23.25
2017-11-17T16:09:01.000Z,23.53
2017-11-17T16:19:01.000Z,24.43
2017-11-17T16:29:01.000Z,24.51
2017-11-17T16:39:01.000Z,24.63
2017-11-17T16:49:01.000Z,24.63
2017-11-17T16:59:03.000Z,24.62
2017-11-17T17:09:02.000Z,24.63
2017-11-17T17:19:02.000Z,24.65
2017-11-17T17:29:02.000Z,24.68
2017-11-17T17:39:02.000Z,24.71
2017-11-17T17:49:03.000Z,24.55
2017-11-17T17:59:04.000Z,24.59
2017-11-17T18:09:02.000Z,24.54
2017-11-17T18:19:02.000Z,24.49
2017-11-17T18:29:02.000Z,24.49
2017-11-17T18:39:04.000Z,24.58
2017-11-17T18:59:02.000Z,24.63
2017-11-17T19:09:02.000Z,24.54
2017-11-17T19:19:05.000Z,24.58
2017-11-17T19:29:03.000Z,24.59
2017-11-17T19:49:02.000Z,24.57
2017-11-17T19:59:02.000Z,24.62
2017-11-17T20:09:02.000Z,24.61
2017-11-17T20:19:02.000Z,24.57
2017-11-17T20:29:02.000Z,24.65
2017-11-17T20:39:02.000Z,24.7
2017-11-17T20:49:02.000Z,24.7
2017-11-17T20:59:02.000Z,24.68
2017-11-17T21:09:02.000Z,24.68
2017-11-17T21:19:02.000Z,24.7
2017-11-17T21:29:02.000Z,24.64
2017-11-17T21:39:02.000Z,24.71
2017-11-17T21:49:02.000Z,24.71
2017-11-17T21:59:02.000Z,24.65
2017-11-17T22:09:02.000Z,24.66
2017-11-17T22:19:02.000Z,24.69
2017-11-17T22:29:02.000Z,24.77
2017-11-17T22:39:02.000Z,24.61
2017-11-17T22:49:02.000Z,24.65
2017-11-17T22:59:02.000Z,24.66
2017-11-17T23:09:02.000Z,24.57
2017-11-17T23:19:02.000Z,24.44
2017-11-17T23:29:02.000Z,24.37
2017-11-17T23:39:02.000Z,24.31
2017-11-17T23:49:02.000Z,24.3
2017-11-17T23:59:02.000Z,24.17
